createdAt,value
2023-07-03T00:00:44.360Z,503.00
2023-07-03T00:01:44.415Z,504.00
2023-07-03T00:02:44.467Z,501.00
2023-07-03T00:03:44.452Z,502.00
2023-07-03T00:04:44.581Z,504.00
2023-07-03T00:05:44.499Z,504.00
2023-07-03T00:06:44.474Z,505.00
2023-07-03T00:07:44.509Z,505.00
2023-07-03T00:08:44.515Z,503.00
2023-07-03T00:09:44.566Z,502.00
2023-07-03T00:10:44.594Z,501.00
2023-07-03T00:11:44.615Z,504.00
2023-07-03T00:12:44.647Z,503.00
2023-07-03T00:13:44.723Z,505.00
2023-07-03T00:14:44.704Z,507.00
2023-07-03T00:15:44.677Z,508.00
2023-07-03T00:16:44.772Z,509.00
2023-07-03T00:17:44.826Z,509.00
2023-07-03T00:18:44.774Z,509.00
2023-07-03T00:19:44.804Z,507.00
2023-07-03T00:20:44.809Z,505.00
2023-07-03T00:21:45.071Z,508.00
2023-07-03T00:22:44.886Z,509.00
2023-07-03T00:23:44.897Z,508.00
2023-07-03T00:24:44.911Z,508.00
2023-07-03T00:25:44.949Z,505.00
2023-07-03T00:26:44.993Z,504.00
2023-07-03T00:27:45.023Z,501.00
2023-07-03T00:28:45.031Z,499.00
2023-07-03T00:29:45.087Z,503.00
2023-07-03T00:30:45.081Z,503.00
2023-07-03T00:31:45.172Z,503.00
2023-07-03T00:32:45.209Z,503.00
2023-07-03T00:33:45.199Z,501.00
2023-07-03T00:34:45.254Z,500.00
2023-07-03T00:35:45.287Z,503.00
2023-07-03T00:36:45.269Z,504.00
2023-07-03T00:37:45.291Z,503.00
2023-07-03T00:38:45.351Z,502.00
2023-07-03T00:39:45.367Z,503.00
2023-07-03T00:40:45.398Z,500.00
2023-07-03T00:41:45.426Z,503.00
2023-07-03T00:42:45.465Z,503.00
2023-07-03T00:43:45.483Z,504.00
2023-07-03T00:44:45.510Z,503.00
2023-07-03T00:45:45.562Z,502.00
2023-07-03T00:46:45.665Z,504.00
2023-07-03T00:47:45.629Z,504.00
2023-07-03T00:48:45.626Z,511.00
2023-07-03T00:49:45.653Z,513.00
2023-07-03T00:50:45.652Z,514.00
2023-07-03T00:51:45.722Z,515.00
2023-07-03T00:52:45.701Z,514.00
2023-07-03T00:53:45.707Z,510.00
2023-07-03T00:54:45.726Z,508.00
2023-07-03T00:55:45.774Z,507.00
2023-07-03T00:56:45.788Z,512.00
2023-07-03T00:57:45.795Z,516.00
2023-07-03T00:58:45.786Z,513.00
2023-07-03T00:59:45.820Z,513.00
2023-07-03T01:00:45.861Z,518.00
2023-07-03T01:01:45.956Z,519.00
2023-07-03T01:02:45.905Z,517.00
2023-07-03T01:03:45.932Z,516.00
2023-07-03T01:04:45.982Z,517.00
2023-07-03T01:05:46.025Z,517.00
2023-07-03T01:06:46.026Z,517.00
2023-07-03T01:07:46.033Z,519.00
2023-07-03T01:08:46.067Z,519.00
2023-07-03T01:09:46.082Z,522.00
2023-07-03T01:10:46.137Z,522.00
2023-07-03T01:11:46.143Z,521.00
2023-07-03T01:12:46.190Z,520.00
2023-07-03T01:13:46.202Z,521.00
2023-07-03T01:14:46.280Z,522.00
2023-07-03T01:15:46.300Z,520.00
2023-07-03T01:16:46.292Z,518.00
2023-07-03T01:17:46.372Z,517.00
2023-07-03T01:18:46.365Z,518.00
2023-07-03T01:19:46.402Z,520.00
2023-07-03T01:20:46.418Z,518.00
2023-07-03T01:21:46.468Z,521.00
2023-07-03T01:22:46.483Z,521.00
2023-07-03T01:23:46.531Z,519.00
2023-07-03T01:24:46.595Z,522.00
2023-07-03T01:25:46.599Z,521.00
2023-07-03T01:26:46.671Z,519.00
2023-07-03T01:27:46.721Z,520.00
2023-07-03T01:28:46.734Z,522.00
2023-07-03T01:29:46.739Z,524.00
2023-07-03T01:30:46.764Z,523.00
2023-07-03T01:31:46.857Z,524.00
2023-07-03T01:32:46.870Z,524.00
2023-07-03T01:33:46.867Z,525.00
2023-07-03T01:34:46.994Z,524.00
2023-07-03T01:35:46.930Z,525.00
2023-07-03T01:36:46.993Z,524.00
2023-07-03T01:37:46.988Z,525.00
2023-07-03T01:38:47.061Z,523.00
2023-07-03T01:39:47.048Z,522.00
2023-07-03T01:40:47.116Z,520.00
2023-07-03T01:41:47.125Z,522.00
2023-07-03T01:42:47.183Z,523.00
2023-07-03T01:43:47.212Z,522.00
2023-07-03T01:44:47.246Z,525.00
2023-07-03T01:45:47.351Z,521.00
2023-07-03T01:46:47.329Z,516.00
2023-07-03T01:47:47.470Z,513.00
2023-07-03T01:48:47.435Z,508.00
2023-07-03T01:49:47.435Z,509.00
2023-07-03T01:50:47.453Z,509.00
2023-07-03T01:51:47.558Z,507.00
2023-07-03T01:52:47.542Z,507.00
2023-07-03T01:53:47.591Z,509.00
2023-07-03T01:54:47.636Z,511.00
2023-07-03T01:55:47.777Z,512.00
2023-07-03T01:56:47.709Z,517.00
2023-07-03T01:57:47.762Z,515.00
2023-07-03T01:58:47.807Z,515.00
2023-07-03T01:59:47.873Z,516.00
2023-07-03T02:00:47.934Z,516.00
2023-07-03T02:01:48.015Z,517.00
2023-07-03T02:02:48.180Z,515.00
2023-07-03T02:03:48.004Z,515.00
2023-07-03T02:04:48.092Z,514.00
2023-07-03T02:05:48.419Z,514.00
2023-07-03T02:06:48.124Z,515.00
2023-07-03T02:07:48.191Z,516.00
2023-07-03T02:08:48.215Z,518.00
2023-07-03T02:09:48.258Z,521.00
2023-07-03T02:10:48.307Z,522.00
2023-07-03T02:11:48.356Z,523.00
2023-07-03T02:12:48.385Z,521.00
2023-07-03T02:13:48.437Z,519.00
2023-07-03T02:14:48.460Z,517.00
2023-07-03T02:15:48.580Z,517.00
2023-07-03T02:16:48.689Z,520.00
2023-07-03T02:17:48.614Z,517.00
2023-07-03T02:18:48.619Z,516.00
2023-07-03T02:19:48.676Z,517.00
2023-07-03T02:20:48.731Z,513.00
2023-07-03T02:21:48.773Z,511.00
2023-07-03T02:22:48.790Z,513.00
2023-07-03T02:23:48.883Z,514.00
2023-07-03T02:24:48.866Z,513.00
2023-07-03T02:25:49.130Z,516.00
2023-07-03T02:26:49.292Z,515.00
2023-07-03T02:27:48.980Z,516.00
2023-07-03T02:28:49.029Z,515.00
2023-07-03T02:29:49.087Z,514.00
2023-07-03T02:30:49.121Z,518.00
2023-07-03T02:31:49.344Z,519.00
2023-07-03T02:32:49.241Z,515.00
2023-07-03T02:33:49.208Z,514.00
2023-07-03T02:34:49.251Z,516.00
2023-07-03T02:35:49.796Z,518.00
2023-07-03T02:36:49.355Z,521.00
2023-07-03T02:37:49.407Z,523.00
2023-07-03T02:38:49.431Z,519.00
2023-07-03T02:39:49.525Z,518.00
2023-07-03T02:40:49.548Z,518.00
2023-07-03T02:41:49.570Z,519.00
2023-07-03T02:42:49.670Z,519.00
2023-07-03T02:43:49.682Z,520.00
2023-07-03T02:44:49.722Z,520.00
2023-07-03T02:45:50.021Z,519.00
2023-07-03T02:46:49.864Z,518.00
2023-07-03T02:47:49.908Z,518.00
2023-07-03T02:48:49.912Z,521.00
2023-07-03T02:49:50.012Z,520.00
2023-07-03T02:50:49.997Z,520.00
2023-07-03T02:51:50.091Z,520.00
2023-07-03T02:52:50.133Z,518.00
2023-07-03T02:53:50.178Z,519.00
2023-07-03T02:54:50.202Z,520.00
2023-07-03T02:55:50.634Z,521.00
2023-07-03T02:56:50.327Z,521.00
2023-07-03T02:57:50.336Z,522.00
2023-07-03T02:58:50.416Z,519.00
2023-07-03T02:59:50.430Z,515.00
2023-07-03T03:00:50.512Z,515.00
2023-07-03T03:01:50.538Z,514.00
2023-07-03T03:02:50.672Z,514.00
2023-07-03T03:03:50.653Z,515.00
2023-07-03T03:04:50.703Z,519.00
2023-07-03T03:05:50.968Z,522.00
2023-07-03T03:06:50.758Z,523.00
2023-07-03T03:07:50.806Z,522.00
2023-07-03T03:08:50.882Z,525.00
2023-07-03T03:09:50.884Z,524.00
2023-07-03T03:10:50.923Z,525.00
2023-07-03T03:11:51.002Z,522.00
2023-07-03T03:12:51.001Z,521.00
2023-07-03T03:13:51.064Z,521.00
2023-07-03T03:14:51.085Z,520.00
2023-07-03T03:15:51.408Z,522.00
2023-07-03T03:16:51.211Z,523.00
2023-07-03T03:17:51.227Z,526.00
2023-07-03T03:18:51.236Z,522.00
2023-07-03T03:19:51.294Z,524.00
2023-07-03T03:20:51.368Z,524.00
2023-07-03T03:21:51.367Z,524.00
2023-07-03T03:22:51.476Z,523.00
2023-07-03T03:23:51.502Z,523.00
2023-07-03T03:24:51.533Z,523.00
2023-07-03T03:25:51.826Z,526.00
2023-07-03T03:26:51.672Z,524.00
2023-07-03T03:27:51.689Z,520.00
2023-07-03T03:28:51.750Z,520.00
2023-07-03T03:29:51.921Z,522.00
2023-07-03T03:30:51.911Z,521.00
2023-07-03T03:31:51.903Z,518.00
2023-07-03T03:32:51.962Z,518.00
2023-07-03T03:33:52.000Z,520.00
2023-07-03T03:34:52.089Z,518.00
2023-07-03T03:35:52.460Z,520.00
2023-07-03T03:36:52.157Z,519.00
2023-07-03T03:37:52.190Z,521.00
2023-07-03T03:38:52.232Z,520.00
2023-07-03T03:39:52.300Z,520.00
2023-07-03T03:40:52.413Z,518.00
2023-07-03T03:41:52.439Z,519.00
2023-07-03T03:42:52.489Z,520.00
2023-07-03T03:43:52.559Z,519.00
2023-07-03T03:44:52.639Z,519.00
2023-07-03T03:45:52.789Z,519.00
2023-07-03T03:46:52.697Z,518.00
2023-07-03T03:47:52.911Z,517.00
2023-07-03T03:48:52.899Z,520.00
2023-07-03T03:49:52.881Z,518.00
2023-07-03T03:50:52.931Z,518.00
2023-07-03T03:51:53.005Z,515.00
2023-07-03T03:52:53.048Z,515.00
2023-07-03T03:53:53.040Z,517.00
2023-07-03T03:54:53.112Z,517.00
2023-07-03T03:55:53.392Z,519.00
2023-07-03T03:56:53.230Z,519.00
2023-07-03T03:57:53.278Z,520.00
2023-07-03T03:58:53.327Z,516.00
2023-07-03T03:59:53.368Z,515.00
2023-07-03T04:00:53.491Z,515.00
2023-07-03T04:01:53.613Z,519.00
2023-07-03T04:02:53.621Z,521.00
2023-07-03T04:03:53.663Z,518.00
2023-07-03T04:04:53.710Z,520.00
2023-07-03T04:05:54.097Z,520.00
2023-07-03T04:06:53.783Z,519.00
2023-07-03T04:07:53.797Z,520.00
2023-07-03T04:08:53.881Z,517.00
2023-07-03T04:09:53.887Z,518.00
2023-07-03T04:10:53.933Z,518.00
2023-07-03T04:11:53.988Z,518.00
2023-07-03T04:12:54.058Z,520.00
2023-07-03T04:13:54.130Z,520.00
2023-07-03T04:14:54.128Z,520.00
2023-07-03T04:15:55.083Z,518.00
2023-07-03T04:16:54.481Z,515.00
2023-07-03T04:17:54.305Z,516.00
2023-07-03T04:18:54.336Z,517.00
2023-07-03T04:19:54.376Z,521.00
2023-07-03T04:20:54.460Z,521.00
2023-07-03T04:21:54.863Z,518.00
2023-07-03T04:22:54.488Z,518.00
2023-07-03T04:23:54.573Z,518.00
2023-07-03T04:24:54.665Z,517.00
2023-07-03T04:25:54.708Z,514.00
2023-07-03T04:26:54.761Z,511.00
2023-07-03T04:27:54.772Z,513.00
2023-07-03T04:28:54.816Z,515.00
2023-07-03T04:29:54.877Z,517.00
2023-07-03T04:30:54.935Z,522.00
2023-07-03T04:31:55.035Z,524.00
2023-07-03T04:32:55.154Z,523.00
2023-07-03T04:33:55.078Z,522.00
2023-07-03T04:34:55.153Z,523.00
2023-07-03T04:35:55.234Z,523.00
2023-07-03T04:36:55.256Z,523.00
2023-07-03T04:37:55.316Z,523.00
2023-07-03T04:38:55.370Z,524.00
2023-07-03T04:39:55.398Z,524.00
2023-07-03T04:40:55.465Z,525.00
2023-07-03T04:41:55.484Z,526.00
2023-07-03T04:42:55.527Z,526.00
2023-07-03T04:43:55.600Z,526.00
2023-07-03T04:44:55.647Z,544.00
2023-07-03T04:45:56.040Z,547.00
2023-07-03T04:46:55.777Z,539.00
2023-07-03T04:47:55.804Z,538.00
2023-07-03T04:48:55.886Z,540.00
2023-07-03T04:49:55.898Z,542.00
2023-07-03T04:50:56.020Z,545.00
2023-07-03T04:51:56.372Z,544.00
2023-07-03T04:52:59.010Z,546.00
2023-07-03T04:53:56.068Z,544.00
2023-07-03T04:54:56.052Z,547.00
2023-07-03T04:55:56.074Z,549.00
2023-07-03T04:56:56.049Z,548.00
2023-07-03T04:57:56.053Z,548.00
2023-07-03T04:58:56.036Z,549.00
2023-07-03T04:59:56.040Z,586.00
2023-07-03T05:00:56.071Z,585.00
2023-07-03T05:01:56.104Z,579.00
2023-07-03T05:02:56.031Z,577.00
2023-07-03T05:03:56.067Z,577.00
2023-07-03T05:04:56.038Z,574.00
2023-07-03T05:05:56.009Z,572.00
2023-07-03T05:06:55.978Z,575.00
2023-07-03T05:07:58.776Z,573.00
2023-07-03T05:08:55.946Z,569.00
2023-07-03T05:09:55.935Z,566.00
2023-07-03T05:10:55.943Z,565.00
2023-07-03T05:11:56.419Z,563.00
2023-07-03T05:12:55.946Z,561.00
2023-07-03T05:13:55.938Z,562.00
2023-07-03T05:14:55.929Z,562.00
2023-07-03T05:15:55.939Z,555.00
2023-07-03T05:16:56.401Z,558.00
2023-07-03T05:17:56.004Z,556.00
2023-07-03T05:18:55.922Z,558.00
2023-07-03T05:19:55.872Z,557.00
2023-07-03T05:20:55.941Z,556.00
2023-07-03T05:21:56.393Z,556.00
2023-07-03T05:22:55.887Z,553.00
2023-07-03T05:23:55.852Z,552.00
2023-07-03T05:24:55.858Z,551.00
2023-07-03T05:25:55.903Z,548.00
2023-07-03T05:26:55.925Z,550.00
2023-07-03T05:27:55.838Z,552.00
2023-07-03T05:28:55.821Z,550.00
2023-07-03T05:29:55.837Z,547.00
2023-07-03T05:30:55.862Z,544.00
2023-07-03T05:31:55.854Z,549.00
2023-07-03T05:32:55.896Z,549.00
2023-07-03T05:33:55.800Z,546.00
2023-07-03T05:34:55.815Z,544.00
2023-07-03T05:35:55.957Z,541.00
2023-07-03T05:36:55.778Z,542.00
2023-07-03T05:37:55.798Z,544.00
2023-07-03T05:38:55.731Z,543.00
2023-07-03T05:39:55.736Z,543.00
2023-07-03T05:40:55.740Z,545.00
2023-07-03T05:41:55.766Z,544.00
2023-07-03T05:42:55.734Z,544.00
2023-07-03T05:43:55.732Z,545.00
2023-07-03T05:44:55.736Z,545.00
2023-07-03T05:45:55.728Z,546.00
2023-07-03T05:46:55.795Z,548.00
2023-07-03T05:47:55.726Z,549.00
2023-07-03T05:48:55.680Z,551.00
2023-07-03T05:49:55.779Z,549.00
2023-07-03T05:50:55.775Z,551.00
2023-07-03T05:51:55.906Z,551.00
2023-07-03T05:52:55.880Z,555.00
2023-07-03T05:53:55.981Z,574.00
2023-07-03T05:54:56.007Z,587.00
2023-07-03T05:55:56.063Z,596.00
2023-07-03T05:56:56.175Z,608.00
2023-07-03T05:57:56.165Z,609.00
2023-07-03T05:58:56.286Z,615.00
2023-07-03T05:59:56.329Z,618.00
2023-07-03T06:00:56.400Z,623.00
2023-07-03T06:01:56.472Z,623.00
2023-07-03T06:02:56.490Z,620.00
2023-07-03T06:03:56.542Z,619.00
2023-07-03T06:04:56.645Z,616.00
2023-07-03T06:05:56.595Z,614.00
2023-07-03T06:06:56.692Z,614.00
2023-07-03T06:07:56.718Z,612.00
2023-07-03T06:08:56.775Z,608.00
2023-07-03T06:09:56.820Z,604.00
2023-07-03T06:10:56.856Z,602.00
2023-07-03T06:11:56.954Z,598.00
2023-07-03T06:12:56.981Z,598.00
2023-07-03T06:13:57.050Z,593.00
2023-07-03T06:14:57.154Z,592.00
2023-07-03T06:15:57.165Z,589.00
2023-07-03T06:16:57.219Z,586.00
2023-07-03T06:17:57.287Z,585.00
2023-07-03T06:18:57.290Z,584.00
2023-07-03T06:19:57.367Z,577.00
2023-07-03T06:20:57.428Z,579.00
2023-07-03T06:21:57.518Z,576.00
2023-07-03T06:22:57.558Z,575.00
2023-07-03T06:23:57.626Z,575.00
2023-07-03T06:24:57.631Z,574.00
2023-07-03T06:25:57.730Z,570.00
2023-07-03T06:26:57.706Z,567.00
2023-07-03T06:27:57.781Z,566.00
2023-07-03T06:28:57.818Z,565.00
2023-07-03T06:29:57.858Z,561.00
2023-07-03T06:30:57.969Z,560.00
2023-07-03T06:31:58.011Z,558.00
2023-07-03T06:32:58.091Z,557.00
2023-07-03T06:33:58.093Z,558.00
2023-07-03T06:34:58.144Z,557.00
2023-07-03T06:35:58.135Z,556.00
2023-07-03T06:36:58.434Z,556.00
2023-07-03T06:37:58.213Z,557.00
2023-07-03T06:38:58.270Z,558.00
2023-07-03T06:39:58.333Z,559.00
2023-07-03T06:40:58.378Z,559.00
2023-07-03T06:41:58.893Z,557.00
2023-07-03T06:42:58.582Z,556.00
2023-07-03T06:43:58.509Z,557.00
2023-07-03T06:44:58.530Z,556.00
2023-07-03T06:45:58.961Z,553.00
2023-07-03T06:46:58.601Z,552.00
2023-07-03T06:47:58.638Z,552.00
2023-07-03T06:48:58.569Z,550.00
2023-07-03T06:49:58.655Z,656.00
2023-07-03T06:50:58.680Z,829.00
2023-07-03T06:51:58.657Z,780.00
2023-07-03T06:52:58.698Z,792.00
2023-07-03T06:53:58.717Z,819.00
2023-07-03T06:54:58.793Z,839.00
2023-07-03T06:55:59.466Z,916.00
2023-07-03T06:56:58.752Z,982.00
2023-07-03T06:57:58.770Z,955.00
2023-07-03T06:58:58.891Z,962.00
2023-07-03T06:59:58.813Z,1014.00
2023-07-03T07:00:58.892Z,1065.00
2023-07-03T07:01:58.987Z,1038.00
2023-07-03T07:02:58.975Z,1031.00
2023-07-03T07:03:59.073Z,1031.00
2023-07-03T07:05:01.653Z,1063.00
2023-07-03T07:05:59.503Z,1077.00
2023-07-03T07:06:59.077Z,1094.00
2023-07-03T07:07:59.056Z,1103.00
2023-07-03T07:08:59.066Z,1088.00
2023-07-03T07:09:59.025Z,1077.00
2023-07-03T07:10:59.039Z,1076.00
2023-07-03T07:11:59.039Z,1100.00
2023-07-03T07:12:59.019Z,1115.00
2023-07-03T07:13:59.035Z,1133.00
2023-07-03T07:15:00.132Z,1140.00
2023-07-03T07:15:59.000Z,1125.00
2023-07-03T07:16:59.123Z,1119.00
2023-07-03T07:17:59.000Z,1119.00
2023-07-03T07:18:58.966Z,1059.00
2023-07-03T07:19:59.133Z,1072.00
2023-07-03T07:20:58.968Z,1112.00
2023-07-03T07:21:58.979Z,1110.00
2023-07-03T07:22:58.950Z,1114.00
2023-07-03T07:23:58.960Z,1121.00
2023-07-03T07:24:58.930Z,1132.00
2023-07-03T07:25:58.961Z,1129.00
2023-07-03T07:26:58.926Z,1135.00
2023-07-03T07:27:58.915Z,1131.00
2023-07-03T07:28:58.895Z,1140.00
2023-07-03T07:29:58.905Z,1164.00
2023-07-03T07:30:59.050Z,1169.00
2023-07-03T07:31:58.963Z,1178.00
2023-07-03T07:32:59.058Z,1180.00
2023-07-03T07:33:59.082Z,1183.00
2023-07-03T07:34:59.126Z,1185.00
2023-07-03T07:35:59.132Z,1192.00
2023-07-03T07:36:59.258Z,1198.00
2023-07-03T07:37:59.307Z,1201.00
2023-07-03T07:38:59.326Z,1206.00
2023-07-03T07:39:59.418Z,1207.00
2023-07-03T07:40:59.470Z,1003.00
2023-07-03T07:41:59.543Z,1111.00
2023-07-03T07:42:59.549Z,1136.00
2023-07-03T07:43:59.604Z,1137.00
2023-07-03T07:44:59.656Z,1178.00
2023-07-03T07:45:59.742Z,1213.00
2023-07-03T07:46:59.881Z,1223.00
2023-07-03T07:47:59.891Z,1200.00
2023-07-03T07:48:59.905Z,1145.00
2023-07-03T07:49:59.947Z,1156.00
2023-07-03T07:50:59.986Z,1166.00
2023-07-03T07:52:00.417Z,1128.00
2023-07-03T07:53:00.088Z,1183.00
2023-07-03T07:54:00.157Z,1166.00
2023-07-03T07:55:00.262Z,1176.00
2023-07-03T07:56:00.256Z,1192.00
2023-07-03T07:57:00.941Z,1215.00
2023-07-03T07:58:00.359Z,1244.00
2023-07-03T07:59:00.480Z,1359.00
2023-07-03T08:00:00.497Z,1326.00
2023-07-03T08:01:00.555Z,1355.00
2023-07-03T08:02:00.616Z,1366.00
2023-07-03T08:03:00.770Z,1373.00
2023-07-03T08:04:00.691Z,1327.00
2023-07-03T08:05:00.914Z,1410.00
2023-07-03T08:06:00.791Z,1370.00
2023-07-03T08:07:00.848Z,1382.00
2023-07-03T08:08:00.886Z,1389.00
2023-07-03T08:09:01.014Z,1377.00
2023-07-03T08:10:01.069Z,1378.00
2023-07-03T08:11:01.052Z,1398.00
2023-07-03T08:12:01.140Z,1422.00
2023-07-03T08:13:01.101Z,1456.00
2023-07-03T08:14:01.080Z,1466.00
2023-07-03T08:15:01.090Z,1469.00
2023-07-03T08:16:01.189Z,1468.00
2023-07-03T08:17:01.209Z,1516.00
2023-07-03T08:18:01.327Z,1486.00
2023-07-03T08:19:01.284Z,1492.00
2023-07-03T08:20:01.290Z,1515.00
2023-07-03T08:21:01.294Z,1575.00
2023-07-03T08:22:01.335Z,1525.00
2023-07-03T08:23:01.300Z,1526.00
2023-07-03T08:24:01.378Z,1521.00
2023-07-03T08:25:01.367Z,1506.00
2023-07-03T08:26:01.419Z,1487.00
2023-07-03T08:27:01.410Z,1476.00
2023-07-03T08:28:01.395Z,1477.00
2023-07-03T08:29:01.490Z,1477.00
2023-07-03T08:30:01.428Z,1475.00
2023-07-03T08:31:01.436Z,1479.00
2023-07-03T08:32:01.564Z,1474.00
2023-07-03T08:33:01.538Z,1469.00
2023-07-03T08:34:01.554Z,1457.00
2023-07-03T08:38:01.465Z,1466.00
2023-07-03T08:39:01.469Z,1492.00
2023-07-03T08:40:01.422Z,1071.00
2023-07-03T08:41:01.460Z,1171.00
2023-07-03T08:42:01.451Z,1008.00
2023-07-03T08:43:01.439Z,942.00
2023-07-03T08:44:01.427Z,908.00
2023-07-03T08:45:01.403Z,873.00
2023-07-03T08:46:01.448Z,944.00
2023-07-03T08:47:10.711Z,906.00
2023-07-03T08:48:02.409Z,917.00
2023-07-03T08:49:01.400Z,772.00
2023-07-03T08:50:01.514Z,794.00
2023-07-03T08:51:01.467Z,752.00
2023-07-03T08:52:01.371Z,746.00
2023-07-03T08:53:01.358Z,668.00
2023-07-03T08:54:01.358Z,718.00
2023-07-03T08:55:01.428Z,849.00
2023-07-03T08:56:01.321Z,868.00
2023-07-03T08:57:01.453Z,935.00
2023-07-03T08:58:01.293Z,1002.00
2023-07-03T08:59:01.293Z,1029.00
2023-07-03T09:00:01.277Z,1045.00
2023-07-03T09:01:01.333Z,1001.00
2023-07-03T09:02:01.326Z,957.00
2023-07-03T09:03:01.391Z,854.00
2023-07-03T09:04:01.388Z,791.00
2023-07-03T09:05:01.424Z,786.00
2023-07-03T09:06:01.543Z,797.00
2023-07-03T09:07:01.546Z,719.00
2023-07-03T09:08:01.518Z,735.00
2023-07-03T09:09:01.509Z,811.00
2023-07-03T09:10:01.655Z,812.00
2023-07-03T09:11:01.617Z,745.00
2023-07-03T09:12:01.602Z,732.00
2023-07-03T09:13:01.617Z,728.00
2023-07-03T09:14:01.672Z,714.00
2023-07-03T09:15:03.155Z,700.00
2023-07-03T09:16:01.700Z,657.00
2023-07-03T09:17:01.769Z,619.00
2023-07-03T09:18:02.520Z,604.00
2023-07-03T09:19:01.802Z,648.00
2023-07-03T09:20:01.665Z,589.00
2023-07-03T09:21:01.769Z,754.00
2023-07-03T09:22:01.710Z,713.00
2023-07-03T09:23:01.821Z,845.00
2023-07-03T09:24:01.724Z,736.00
2023-07-03T09:25:01.654Z,815.00
2023-07-03T09:26:04.946Z,980.00
2023-07-03T09:27:01.737Z,905.00
2023-07-03T09:28:01.600Z,824.00
2023-07-03T09:29:01.617Z,809.00
2023-07-03T09:30:01.598Z,799.00
2023-07-03T09:31:03.641Z,753.00
2023-07-03T09:32:48.273Z,714.00
2023-07-03T09:33:48.333Z,669.00
2023-07-03T09:34:48.381Z,680.00
2023-07-03T09:35:48.354Z,671.00
2023-07-03T09:36:48.396Z,669.00
2023-07-03T09:37:48.414Z,658.00
2023-07-03T09:38:49.469Z,649.00
2023-07-03T09:39:48.407Z,727.00
2023-07-03T09:40:48.372Z,721.00
2023-07-03T09:41:48.404Z,731.00
2023-07-03T09:42:49.998Z,738.00
2023-07-03T09:43:48.554Z,764.00
2023-07-03T09:44:48.351Z,778.00
2023-07-03T09:45:48.608Z,775.00
2023-07-03T09:46:48.447Z,780.00
2023-07-03T09:47:48.395Z,792.00
2023-07-03T09:48:48.322Z,790.00
2023-07-03T09:49:48.364Z,774.00
2023-07-03T09:51:05.488Z,783.00
2023-07-03T09:51:49.360Z,825.00
2023-07-03T09:52:59.382Z,770.00
2023-07-03T09:53:49.306Z,782.00
2023-07-03T09:54:48.668Z,793.00
2023-07-03T09:55:48.368Z,866.00
2023-07-03T09:56:48.301Z,749.00
2023-07-03T09:57:48.239Z,810.00
2023-07-03T09:58:48.256Z,802.00
2023-07-03T09:59:48.257Z,892.00
2023-07-03T10:00:49.197Z,912.00
2023-07-03T10:03:48.327Z,948.00
2023-07-03T10:06:48.258Z,894.00
2023-07-03T10:07:48.283Z,853.00
2023-07-03T10:08:48.533Z,863.00
2023-07-03T10:11:48.249Z,901.00
2023-07-03T10:12:48.179Z,918.00
2023-07-03T10:13:48.212Z,899.00
2023-07-03T10:14:48.127Z,893.00
2023-07-03T10:15:48.313Z,899.00
2023-07-03T10:16:48.211Z,903.00
2023-07-03T10:17:48.206Z,872.00
2023-07-03T10:18:48.120Z,856.00
2023-07-03T10:19:48.123Z,852.00
2023-07-03T10:20:48.113Z,856.00
2023-07-03T10:21:48.118Z,881.00
2023-07-03T10:22:48.098Z,911.00
2023-07-03T10:23:48.122Z,931.00
2023-07-03T10:24:48.874Z,922.00
2023-07-03T10:25:48.138Z,962.00
2023-07-03T10:26:48.319Z,977.00
2023-07-03T10:27:48.056Z,1029.00
2023-07-03T10:28:48.076Z,1015.00
2023-07-03T10:29:48.084Z,1008.00
2023-07-03T10:30:48.076Z,994.00
2023-07-03T10:31:48.059Z,998.00
2023-07-03T10:32:48.060Z,1006.00
2023-07-03T10:33:48.009Z,1027.00
2023-07-03T10:34:48.020Z,1029.00
2023-07-03T10:35:48.085Z,1037.00
2023-07-03T10:36:48.005Z,1039.00
2023-07-03T10:37:47.972Z,1055.00
2023-07-03T10:38:47.991Z,1103.00
2023-07-03T10:39:47.998Z,1108.00
2023-07-03T10:40:48.038Z,1116.00
2023-07-03T10:41:48.004Z,1116.00
2023-07-03T10:42:48.070Z,1075.00
2023-07-03T10:43:47.954Z,1042.00
2023-07-03T10:44:47.983Z,1038.00
2023-07-03T10:45:48.053Z,1001.00
2023-07-03T10:46:48.077Z,943.00
2023-07-03T10:47:47.996Z,897.00
2023-07-03T10:48:47.908Z,900.00
2023-07-03T10:49:47.904Z,914.00
2023-07-03T10:50:48.000Z,923.00
2023-07-03T10:51:47.985Z,914.00
2023-07-03T10:52:47.894Z,902.00
2023-07-03T10:53:47.896Z,880.00
2023-07-03T10:54:47.916Z,854.00
2023-07-03T10:55:47.933Z,845.00
2023-07-03T10:56:47.890Z,829.00
2023-07-03T10:57:47.850Z,812.00
2023-07-03T10:58:47.999Z,803.00
2023-07-03T10:59:47.874Z,762.00
2023-07-03T11:00:47.859Z,765.00
2023-07-03T11:01:47.898Z,764.00
2023-07-03T11:02:47.883Z,752.00
2023-07-03T11:03:53.057Z,726.00
2023-07-03T11:04:48.895Z,707.00
2023-07-03T11:05:47.814Z,695.00
2023-07-03T11:06:47.834Z,685.00
2023-07-03T11:07:47.803Z,675.00
2023-07-03T11:08:47.804Z,672.00
2023-07-03T11:09:47.821Z,659.00
2023-07-03T11:10:47.822Z,656.00
2023-07-03T11:11:47.777Z,647.00
2023-07-03T11:12:47.785Z,642.00
2023-07-03T11:13:47.800Z,638.00
2023-07-03T11:14:47.892Z,632.00
2023-07-03T11:15:47.928Z,626.00
2023-07-03T11:16:48.062Z,616.00
2023-07-03T11:22:47.831Z,576.00
2023-07-03T11:23:47.868Z,575.00
2023-07-03T11:24:47.864Z,573.00
2023-07-03T11:28:47.846Z,559.00
2023-07-03T11:29:47.779Z,555.00
2023-07-03T11:30:47.816Z,558.00
2023-07-03T11:31:47.970Z,556.00
2023-07-03T11:32:47.783Z,557.00
2023-07-03T11:36:56.752Z,536.00
2023-07-03T11:39:47.721Z,522.00
2023-07-03T11:40:47.865Z,523.00
2023-07-03T11:43:47.701Z,523.00
2023-07-03T11:44:47.700Z,524.00
2023-07-03T11:45:47.734Z,523.00
2023-07-03T11:46:47.703Z,522.00
2023-07-03T11:47:47.701Z,521.00
2023-07-03T11:48:47.655Z,524.00
2023-07-03T11:49:47.685Z,524.00
2023-07-03T11:50:47.645Z,522.00
2023-07-03T11:51:47.628Z,522.00
2023-07-03T11:52:47.643Z,518.00
2023-07-03T11:53:47.652Z,519.00
2023-07-03T11:54:47.654Z,518.00
2023-07-03T11:55:47.775Z,518.00
2023-07-03T11:56:47.618Z,515.00
2023-07-03T11:57:50.285Z,514.00
2023-07-03T11:58:48.588Z,511.00
2023-07-03T11:59:47.566Z,507.00
2023-07-03T12:00:47.609Z,507.00
2023-07-03T12:01:47.574Z,507.00
2023-07-03T12:02:47.608Z,507.00
2023-07-03T12:03:47.603Z,512.00
2023-07-03T12:04:49.463Z,510.00
2023-07-03T12:05:47.761Z,509.00
2023-07-03T12:06:47.711Z,508.00
2023-07-03T12:07:47.772Z,503.00
2023-07-03T12:08:47.819Z,501.00
2023-07-03T12:09:47.896Z,499.00
2023-07-03T12:10:47.944Z,501.00
2023-07-03T12:11:48.003Z,498.00
2023-07-03T12:12:48.085Z,495.00
2023-07-03T12:13:48.131Z,494.00
2023-07-03T12:14:48.173Z,494.00
2023-07-03T12:15:48.412Z,494.00
2023-07-03T12:16:48.364Z,491.00
2023-07-03T12:17:48.394Z,494.00
2023-07-03T12:18:48.410Z,492.00
2023-07-03T12:19:48.469Z,491.00
2023-07-03T12:20:48.520Z,489.00
2023-07-03T12:21:48.598Z,489.00
2023-07-03T12:22:48.693Z,492.00
2023-07-03T12:23:49.565Z,491.00
2023-07-03T12:24:48.770Z,490.00
2023-07-03T12:25:49.033Z,488.00
2023-07-03T12:26:48.867Z,489.00
2023-07-03T12:27:48.990Z,488.00
2023-07-03T12:28:49.028Z,491.00
2023-07-03T12:29:49.074Z,490.00
2023-07-03T12:30:49.249Z,491.00
2023-07-03T12:31:49.212Z,490.00
2023-07-03T12:32:49.401Z,485.00
2023-07-03T12:33:49.318Z,485.00
2023-07-03T12:34:49.369Z,488.00
2023-07-03T12:35:49.674Z,488.00
2023-07-03T12:36:54.088Z,486.00
2023-07-03T12:37:50.443Z,482.00
2023-07-03T12:38:49.459Z,483.00
2023-07-03T12:39:49.421Z,486.00
2023-07-03T12:40:49.416Z,487.00
2023-07-03T12:41:49.433Z,486.00
2023-07-03T12:42:49.429Z,487.00
2023-07-03T12:43:56.591Z,487.00
2023-07-03T12:44:50.438Z,484.00
2023-07-03T12:45:49.552Z,486.00
2023-07-03T12:46:49.422Z,484.00
2023-07-03T12:47:49.405Z,482.00
2023-07-03T12:48:49.360Z,482.00
2023-07-03T12:49:49.368Z,483.00